createdAt,value
2023-03-02T00:01:48.319Z,0.69
2023-03-02T00:04:23.773Z,0.66
2023-03-02T00:06:54.404Z,0.58
2023-03-02T00:09:22.424Z,0.55
2023-03-02T00:11:50.449Z,0.49
2023-03-02T00:14:20.332Z,0.44
2023-03-02T00:16:48.253Z,0.39
2023-03-02T00:19:16.076Z,0.36
2023-03-02T00:21:45.326Z,0.31
2023-03-02T00:24:15.493Z,0.25
2023-03-02T00:26:43.625Z,0.26
2023-03-02T00:29:13.151Z,0.20
2023-03-02T00:31:41.193Z,0.15
2023-03-02T00:34:09.075Z,0.13
2023-03-02T00:36:36.903Z,0.08
2023-03-02T00:39:06.233Z,0.08
2023-03-02T00:41:34.100Z,0.08
2023-03-02T00:44:01.962Z,0.14
2023-03-02T00:46:30.189Z,0.16
2023-03-02T00:48:58.156Z,0.12
2023-03-02T00:51:26.136Z,0.16
2023-03-02T00:53:53.915Z,0.18
2023-03-02T00:56:23.130Z,0.18
2023-03-02T00:58:53.083Z,0.18
2023-03-02T01:01:22.748Z,0.21
2023-03-02T01:03:55.777Z,0.19
2023-03-02T01:06:24.329Z,0.20
2023-03-02T01:08:52.401Z,0.19
2023-03-02T01:11:23.395Z,0.17
2023-03-02T01:13:52.961Z,0.16
2023-03-02T01:16:21.204Z,0.16
2023-03-02T01:18:49.795Z,0.15
2023-03-02T01:21:19.299Z,0.17
2023-03-02T01:23:47.832Z,0.18
2023-03-02T01:26:15.650Z,0.18
2023-03-02T01:28:44.839Z,0.20
2023-03-02T01:31:13.498Z,0.16
2023-03-02T01:33:44.503Z,0.17
2023-03-02T01:36:12.445Z,0.19
2023-03-02T01:38:42.673Z,0.20
2023-03-02T01:45:49.484Z,0.15
2023-03-02T01:48:28.926Z,0.14
2023-03-02T01:50:58.709Z,0.05
2023-03-02T01:53:30.621Z,0.09
2023-03-02T01:56:01.406Z,0.10
2023-03-02T01:58:34.056Z,0.07
2023-03-02T02:01:04.144Z,0.04
2023-03-02T02:03:33.889Z,0.02
2023-03-02T02:06:18.941Z,-0.01
2023-03-02T02:08:48.495Z,-0.01
2023-03-02T02:11:17.262Z,-0.09
2023-03-02T02:13:45.786Z,-0.08
2023-03-02T02:16:15.595Z,-0.14
2023-03-02T02:18:45.517Z,-0.18
2023-03-02T02:21:14.433Z,-0.18
2023-03-02T02:23:50.651Z,-0.25
2023-03-02T02:26:29.087Z,-0.21
2023-03-02T02:29:03.341Z,-0.16
2023-03-02T02:31:39.157Z,-0.24
2023-03-02T02:34:16.557Z,-0.22
2023-03-02T02:36:49.851Z,-0.35
2023-03-02T02:39:24.999Z,-0.40
2023-03-02T02:41:57.738Z,-0.45
2023-03-02T02:44:26.463Z,-0.49
2023-03-02T02:46:55.054Z,-0.57
2023-03-02T02:49:41.551Z,-0.61
2023-03-02T02:52:14.800Z,-0.66
2023-03-02T02:54:46.214Z,-0.66
2023-03-02T02:57:17.771Z,-0.72
2023-03-02T02:59:48.709Z,-0.77
2023-03-02T03:02:20.439Z,-0.77
2023-03-02T03:04:48.625Z,-0.80
2023-03-02T03:07:20.858Z,-0.82
2023-03-02T03:09:54.492Z,-0.87
2023-03-02T03:12:26.256Z,-0.88
2023-03-02T03:14:55.525Z,-0.91
2023-03-02T03:17:23.390Z,-0.93
2023-03-02T03:20:04.417Z,-0.94
2023-03-02T03:22:32.960Z,-1.00
2023-03-02T03:25:02.262Z,-1.01
2023-03-02T03:27:33.198Z,-0.99
2023-03-02T03:30:04.200Z,-1.02
2023-03-02T03:32:36.155Z,-1.03
2023-03-02T03:35:08.891Z,-1.03
2023-03-02T03:37:38.736Z,-1.09
2023-03-02T03:40:09.566Z,-1.12
2023-03-02T03:42:41.715Z,-1.10
2023-03-02T03:45:10.537Z,-1.12
2023-03-02T03:47:39.900Z,-1.15
2023-03-02T03:50:11.458Z,-1.22
2023-03-02T03:52:43.394Z,-1.24
2023-03-02T03:55:19.288Z,-1.25
2023-03-02T03:57:50.479Z,-1.28
2023-03-02T04:00:19.070Z,-1.35
2023-03-02T04:02:52.455Z,-1.35
2023-03-02T04:05:21.435Z,-1.32
2023-03-02T04:07:52.604Z,-1.39
2023-03-02T04:10:22.048Z,-1.39
2023-03-02T04:12:56.661Z,-1.41
2023-03-02T04:15:26.779Z,-1.40
2023-03-02T04:17:58.694Z,-1.41
2023-03-02T04:20:29.442Z,-1.43
2023-03-02T04:22:59.242Z,-1.39
2023-03-02T04:25:31.277Z,-1.45
2023-03-02T04:28:07.192Z,-1.50
2023-03-02T04:30:38.853Z,-1.49
2023-03-02T04:33:07.420Z,-1.50
2023-03-02T04:35:38.179Z,-1.52
2023-03-02T04:38:06.165Z,-1.53
2023-03-02T04:40:34.252Z,-1.49
2023-03-02T04:43:02.060Z,-1.47
2023-03-02T04:45:32.105Z,-1.43
2023-03-02T04:48:00.914Z,-1.41
2023-03-02T04:50:29.596Z,-1.38
2023-03-02T04:52:57.864Z,-1.37
2023-03-02T04:55:28.690Z,-1.37
2023-03-02T04:57:56.509Z,-1.36
2023-03-02T05:00:25.136Z,-1.36
2023-03-02T05:02:54.294Z,-1.41
2023-03-02T05:05:26.373Z,-1.48
2023-03-02T05:07:56.009Z,-1.49
2023-03-02T05:10:24.607Z,-1.50
2023-03-02T05:12:58.100Z,-1.50
2023-03-02T05:15:29.119Z,-1.51
2023-03-02T05:17:59.141Z,-1.51
2023-03-02T05:20:30.532Z,-1.53
2023-03-02T05:23:02.031Z,-1.47
2023-03-02T05:25:31.623Z,-1.47
2023-03-02T05:27:59.945Z,-1.44
2023-03-02T05:30:27.909Z,-1.42
2023-03-02T05:32:56.041Z,-1.39
2023-03-02T05:35:26.413Z,-1.37
2023-03-02T05:37:54.243Z,-1.37
2023-03-02T05:40:23.277Z,-1.31
2023-03-02T05:42:51.863Z,-1.31
2023-03-02T05:45:25.338Z,-1.24
2023-03-02T05:47:53.822Z,-1.20
2023-03-02T05:50:25.413Z,-1.16
2023-03-02T05:52:54.566Z,-1.12
2023-03-02T05:55:23.082Z,-1.07
2023-03-02T05:57:50.959Z,-1.07
2023-03-02T06:00:20.358Z,-1.06
2023-03-02T06:02:48.730Z,-1.04
2023-03-02T06:05:20.042Z,-1.03
2023-03-02T06:07:47.931Z,-1.02
2023-03-02T06:10:18.253Z,-0.97
2023-03-02T06:12:46.087Z,-0.93
2023-03-02T06:15:13.891Z,-0.91
2023-03-02T06:17:42.227Z,-0.94
2023-03-02T06:20:11.832Z,-0.87
2023-03-02T06:22:42.525Z,-0.84
2023-03-02T06:25:11.962Z,-0.84
2023-03-02T06:27:42.887Z,-0.79
2023-03-02T06:30:16.100Z,-0.76
2023-03-02T06:32:44.315Z,-0.70
2023-03-02T06:35:12.290Z,-0.67
2023-03-02T06:37:42.239Z,-0.64
2023-03-02T06:40:13.824Z,-0.62
2023-03-02T06:42:43.947Z,-0.55
2023-03-02T06:45:13.255Z,-0.53
2023-03-02T06:47:42.781Z,-0.48
2023-03-02T06:50:12.400Z,-0.50
2023-03-02T06:52:40.581Z,-0.45
2023-03-02T06:55:10.005Z,-0.40
2023-03-02T06:57:37.996Z,-0.38
2023-03-02T07:00:15.755Z,-0.36
2023-03-02T07:02:44.178Z,-0.32
2023-03-02T07:05:12.487Z,-0.29
2023-03-02T07:07:40.594Z,-0.25
2023-03-02T07:10:10.808Z,-0.22
2023-03-02T07:12:38.766Z,-0.18
2023-03-02T07:15:11.106Z,-0.17
2023-03-02T07:17:39.898Z,-0.13
2023-03-02T07:20:10.078Z,-0.13
2023-03-02T07:22:37.956Z,-0.16
2023-03-02T07:25:06.781Z,-0.07
2023-03-02T07:27:34.791Z,-0.08
2023-03-02T07:30:02.833Z,-0.03
2023-03-02T07:32:32.342Z,-0.04
2023-03-02T07:35:00.199Z,0.02
2023-03-02T07:37:28.019Z,0.02
2023-03-02T07:39:56.450Z,0.02
2023-03-02T07:42:24.807Z,0.07
2023-03-02T07:44:57.349Z,0.10
2023-03-02T07:47:25.252Z,0.07
2023-03-02T07:49:54.430Z,0.04
2023-03-02T07:52:22.271Z,0.10
2023-03-02T07:54:50.312Z,0.15
2023-03-02T07:57:18.276Z,0.17
2023-03-02T07:59:46.305Z,0.13
2023-03-02T08:02:16.190Z,0.15
2023-03-02T08:04:44.400Z,0.23
2023-03-02T08:07:13.772Z,0.21
2023-03-02T08:09:42.250Z,0.27
2023-03-02T08:12:10.129Z,0.33
2023-03-02T08:14:39.297Z,0.37
2023-03-02T08:17:07.649Z,0.44
2023-03-02T08:19:35.590Z,0.45
2023-03-02T08:22:03.599Z,0.52
2023-03-02T08:24:32.847Z,0.49
2023-03-02T08:27:02.106Z,0.61
2023-03-02T08:29:30.329Z,0.59
2023-03-02T08:31:58.888Z,0.59
2023-03-02T08:34:27.357Z,0.63
2023-03-02T08:36:55.240Z,0.69
2023-03-02T08:39:23.656Z,0.72
2023-03-02T08:41:53.291Z,0.75
2023-03-02T08:44:22.844Z,0.78
2023-03-02T08:46:53.078Z,0.82
2023-03-02T08:49:20.995Z,0.86
2023-03-02T08:51:53.566Z,0.90
2023-03-02T08:54:22.240Z,0.98
2023-03-02T08:56:50.435Z,1.02
2023-03-02T08:59:22.185Z,1.11
2023-03-02T09:01:50.179Z,1.15
2023-03-02T09:04:18.296Z,1.19
2023-03-02T09:06:46.665Z,1.24
2023-03-02T09:09:15.927Z,1.37
2023-03-02T09:11:44.844Z,1.41
2023-03-02T09:14:13.957Z,1.48
2023-03-02T09:16:43.365Z,1.61
2023-03-02T09:19:12.985Z,1.63
2023-03-02T09:21:40.719Z,1.69
2023-03-02T09:24:08.946Z,1.79
2023-03-02T09:26:38.187Z,1.81
2023-03-02T09:29:07.457Z,1.86
2023-03-02T09:31:36.471Z,1.89
2023-03-02T09:34:06.759Z,1.93
2023-03-02T09:36:35.025Z,2.04
2023-03-02T09:39:08.473Z,2.11
2023-03-02T09:42:17.753Z,2.19
2023-03-02T09:45:04.172Z,2.29
2023-03-02T09:47:39.525Z,2.33
2023-03-02T09:50:26.364Z,2.37
2023-03-02T09:53:15.723Z,2.41
2023-03-02T09:55:54.433Z,2.46
2023-03-02T09:58:25.547Z,2.51
2023-03-02T10:00:53.492Z,2.59
2023-03-02T10:03:24.275Z,2.68
2023-03-02T10:05:55.704Z,2.76
2023-03-02T10:08:26.626Z,2.69
2023-03-02T10:10:59.055Z,2.79
2023-03-02T10:13:30.036Z,2.88
2023-03-02T10:16:12.896Z,2.93
2023-03-02T10:18:46.149Z,2.96
2023-03-02T10:21:25.925Z,3.02
2023-03-02T10:23:58.227Z,3.06
2023-03-02T10:26:38.426Z,3.13
2023-03-02T10:29:33.882Z,3.18
2023-03-02T10:32:13.277Z,3.25
2023-03-02T10:34:42.110Z,3.27
2023-03-02T10:37:15.590Z,3.26
2023-03-02T10:39:43.969Z,3.34
2023-03-02T10:42:18.012Z,3.31
2023-03-02T10:44:49.873Z,3.30
2023-03-02T10:47:23.972Z,3.35
2023-03-02T10:49:53.369Z,3.35
2023-03-02T10:52:24.840Z,3.34
2023-03-02T10:55:03.547Z,3.37
2023-03-02T10:57:37.109Z,3.31
2023-03-02T11:00:16.476Z,3.48
2023-03-02T11:02:52.028Z,3.46
2023-03-02T11:05:32.642Z,3.44
2023-03-02T11:08:04.208Z,3.49
2023-03-02T11:10:34.264Z,3.47
2023-03-02T11:13:03.141Z,3.61
2023-03-02T11:15:37.659Z,3.70
2023-03-02T11:18:09.465Z,3.73
2023-03-02T11:20:40.400Z,3.74
2023-03-02T11:23:25.879Z,3.78
2023-03-02T11:25:56.889Z,3.84
2023-03-02T11:28:42.739Z,3.92
2023-03-02T11:31:17.534Z,3.97
2023-03-02T11:34:04.758Z,3.98
2023-03-02T11:36:46.320Z,4.02
2023-03-02T11:39:23.096Z,4.07
2023-03-02T11:41:52.257Z,4.12
2023-03-02T11:44:24.127Z,4.14
2023-03-02T11:46:59.038Z,4.17
2023-03-02T11:49:35.931Z,4.18
2023-03-02T11:52:03.792Z,4.21
2023-03-02T11:54:43.941Z,4.28
2023-03-02T11:57:20.834Z,4.21
2023-03-02T11:59:50.137Z,4.24
2023-03-02T12:02:18.852Z,4.21
2023-03-02T12:04:48.815Z,4.30
2023-03-02T12:07:23.917Z,4.38
2023-03-02T12:10:03.260Z,4.44
2023-03-02T12:12:36.706Z,4.43
2023-03-02T12:15:05.331Z,4.45
2023-03-02T12:17:35.221Z,4.41
2023-03-02T12:20:27.517Z,4.33
2023-03-02T12:23:06.824Z,4.37
2023-03-02T12:25:49.560Z,4.32
2023-03-02T12:28:28.968Z,4.28
2023-03-02T12:30:58.149Z,4.35
2023-03-02T12:33:25.964Z,4.36
2023-03-02T12:36:05.375Z,4.36
2023-03-02T12:38:37.077Z,4.42
2023-03-02T12:41:35.761Z,4.44
2023-03-02T12:44:17.790Z,4.52
2023-03-02T12:46:47.454Z,4.51
2023-03-02T12:49:33.487Z,4.49
2023-03-02T12:52:03.364Z,4.55
2023-03-02T12:54:32.336Z,4.54
2023-03-02T12:57:08.620Z,4.51
2023-03-02T12:59:37.184Z,4.55
2023-03-02T13:02:12.908Z,4.52
2023-03-02T13:04:40.776Z,4.50
2023-03-02T13:07:17.532Z,4.61
2023-03-02T13:09:56.339Z,4.61
2023-03-02T13:12:28.025Z,4.66
2023-03-02T13:14:58.948Z,4.68
2023-03-02T13:17:29.567Z,4.63
2023-03-02T13:19:58.005Z,4.67
2023-03-02T13:22:27.224Z,4.70
2023-03-02T13:25:00.211Z,4.75
2023-03-02T13:27:30.138Z,4.82
2023-03-02T13:30:10.514Z,4.84
2023-03-02T13:32:42.037Z,4.90
2023-03-02T13:35:19.256Z,4.97
2023-03-02T13:37:47.238Z,4.98
2023-03-02T13:40:32.477Z,4.95
2023-03-02T13:43:02.700Z,5.00
2023-03-02T13:45:31.875Z,5.03
2023-03-02T13:48:01.781Z,5.00
2023-03-02T13:50:32.550Z,5.04
2023-03-02T13:53:05.473Z,5.07
2023-03-02T13:55:34.385Z,5.09
2023-03-02T13:58:03.810Z,5.14
2023-03-02T14:00:34.347Z,5.05
2023-03-02T14:03:02.650Z,5.11
2023-03-02T14:05:33.305Z,5.20
2023-03-02T14:08:02.790Z,5.20
2023-03-02T14:10:30.652Z,5.23
2023-03-02T14:13:02.977Z,5.23
2023-03-02T14:15:32.580Z,5.21
2023-03-02T14:18:01.126Z,5.25
2023-03-02T14:20:29.032Z,5.26
2023-03-02T14:22:57.557Z,5.26
2023-03-02T14:25:26.520Z,5.28
2023-03-02T14:27:54.497Z,5.32
2023-03-02T14:30:22.620Z,5.36
2023-03-02T14:32:52.181Z,5.36
2023-03-02T14:35:20.755Z,5.38
2023-03-02T14:37:50.653Z,5.38
2023-03-02T14:40:22.414Z,5.39
2023-03-02T14:42:51.734Z,5.42
2023-03-02T14:45:19.695Z,5.47
2023-03-02T14:47:48.875Z,5.47
2023-03-02T14:50:18.210Z,5.50
2023-03-02T14:52:49.177Z,5.53
2023-03-02T14:55:23.693Z,5.49
2023-03-02T14:57:55.112Z,5.48
2023-03-02T15:00:23.408Z,5.56
2023-03-02T15:02:52.051Z,5.59
2023-03-02T15:05:21.782Z,5.58
2023-03-02T15:07:50.406Z,5.58
2023-03-02T15:10:21.342Z,5.60
2023-03-02T15:12:49.223Z,5.62
2023-03-02T15:15:17.756Z,5.63
2023-03-02T15:17:45.611Z,5.65
2023-03-02T15:20:16.089Z,5.65
2023-03-02T15:22:45.246Z,5.64
2023-03-02T15:25:13.078Z,5.64
2023-03-02T15:27:41.551Z,5.65
2023-03-02T15:30:12.166Z,5.65
2023-03-02T15:32:40.196Z,5.65
2023-03-02T15:35:09.738Z,5.65
2023-03-02T15:37:37.553Z,5.64
2023-03-02T15:40:08.335Z,5.65
2023-03-02T15:42:37.080Z,5.65
2023-03-02T15:45:05.473Z,5.66
2023-03-02T15:47:34.284Z,5.65
2023-03-02T15:50:02.068Z,5.65
2023-03-02T15:52:29.885Z,5.66
2023-03-02T15:54:57.732Z,5.66
2023-03-02T15:57:26.930Z,5.66
2023-03-02T15:59:54.725Z,5.64
2023-03-02T16:02:22.725Z,5.64
2023-03-02T16:04:50.538Z,5.63
2023-03-02T16:07:21.110Z,5.63
2023-03-02T16:09:49.191Z,5.61
2023-03-02T16:12:18.581Z,5.62
2023-03-02T16:14:47.722Z,5.60
2023-03-02T16:17:17.749Z,5.57
2023-03-02T16:19:45.722Z,5.58
2023-03-02T16:22:13.491Z,5.56
2023-03-02T16:24:42.012Z,5.56
2023-03-02T16:27:10.075Z,5.54
2023-03-02T16:29:38.170Z,5.53
2023-03-02T16:32:09.299Z,5.51
2023-03-02T16:34:37.253Z,5.50
2023-03-02T16:37:05.060Z,5.45
2023-03-02T16:39:33.503Z,5.40
2023-03-02T16:42:02.543Z,5.40
2023-03-02T16:44:30.599Z,5.36
2023-03-02T16:46:58.469Z,5.30
2023-03-02T16:49:27.860Z,5.24
2023-03-02T16:51:58.154Z,5.19
2023-03-02T16:54:26.604Z,5.13
2023-03-02T16:56:54.508Z,5.09
2023-03-02T16:59:22.260Z,5.04
2023-03-02T17:01:50.534Z,4.97
2023-03-02T17:04:18.807Z,4.97
2023-03-02T17:07:00.598Z,4.88
2023-03-02T17:09:28.983Z,4.83
2023-03-02T17:11:56.830Z,4.81
2023-03-02T17:14:24.705Z,4.76
2023-03-02T17:16:52.477Z,4.65
2023-03-02T17:19:20.443Z,4.64
2023-03-02T17:21:49.634Z,4.64
2023-03-02T17:24:17.387Z,4.52
2023-03-02T17:26:46.762Z,4.54
2023-03-02T17:29:14.696Z,4.44
2023-03-02T17:31:42.755Z,4.39
2023-03-02T17:34:10.601Z,4.37
2023-03-02T17:36:38.477Z,4.29
2023-03-02T17:39:08.038Z,4.28
2023-03-02T17:41:37.580Z,4.24
2023-03-02T17:44:06.508Z,4.14
2023-03-02T17:46:34.480Z,4.09
2023-03-02T17:49:02.450Z,4.10
2023-03-02T17:51:31.424Z,4.00
2023-03-02T17:53:59.236Z,4.02
2023-03-02T17:56:30.027Z,3.92
2023-03-02T17:58:59.422Z,3.91
2023-03-02T18:01:29.165Z,3.84
2023-03-02T18:03:57.057Z,3.85
2023-03-02T18:06:25.449Z,3.71
2023-03-02T18:08:53.774Z,3.75
2023-03-02T18:11:24.349Z,3.64
2023-03-02T18:13:55.744Z,3.60
2023-03-02T18:16:25.503Z,3.55
2023-03-02T18:18:54.129Z,3.53
2023-03-02T18:21:23.374Z,3.49
2023-03-02T18:23:51.211Z,3.46
2023-03-02T18:26:19.163Z,3.44
2023-03-02T18:28:47.003Z,3.33
2023-03-02T18:31:18.584Z,3.34
2023-03-02T18:33:47.737Z,3.31
2023-03-02T18:36:17.053Z,3.28
2023-03-02T18:38:44.953Z,3.25
2023-03-02T18:41:14.290Z,3.24
2023-03-02T18:43:43.523Z,3.13
2023-03-02T18:46:21.084Z,3.07
2023-03-02T18:48:50.256Z,3.05
2023-03-02T18:51:18.641Z,3.04
2023-03-02T18:53:46.592Z,3.04
2023-03-02T18:56:14.769Z,2.98
2023-03-02T18:58:42.920Z,2.94
2023-03-02T19:01:11.426Z,2.92
2023-03-02T19:03:41.782Z,2.86
2023-03-02T19:06:09.812Z,2.87
2023-03-02T19:08:37.659Z,2.82
2023-03-02T19:11:06.363Z,2.75
2023-03-02T19:13:34.919Z,2.72
2023-03-02T19:16:02.931Z,2.71
2023-03-02T19:18:31.491Z,2.67
2023-03-02T19:21:01.733Z,2.61
2023-03-02T19:23:30.101Z,2.62
2023-03-02T19:25:58.331Z,2.57
2023-03-02T19:28:27.426Z,2.56
2023-03-02T19:30:55.308Z,2.54
2023-03-02T19:33:24.712Z,2.52
2023-03-02T19:35:52.598Z,2.49
2023-03-02T19:38:22.599Z,2.45
2023-03-02T19:40:50.647Z,2.42
2023-03-02T19:43:20.272Z,2.40
2023-03-02T19:45:48.159Z,2.39
2023-03-02T19:48:16.038Z,2.36
2023-03-02T19:50:45.341Z,2.31
2023-03-02T19:53:17.248Z,2.24
2023-03-02T19:55:47.828Z,2.18
2023-03-02T19:58:17.558Z,2.16
2023-03-02T20:00:46.049Z,2.15
2023-03-02T20:03:14.051Z,2.09
2023-03-02T20:05:41.844Z,2.05
2023-03-02T20:08:09.759Z,1.98
2023-03-02T20:10:40.157Z,1.97
2023-03-02T20:13:12.225Z,1.96
2023-03-02T20:15:44.409Z,1.89
2023-03-02T20:18:16.543Z,1.85
2023-03-02T20:20:45.619Z,1.83
2023-03-02T20:23:13.733Z,1.81
2023-03-02T20:25:41.847Z,1.80
2023-03-02T20:28:13.943Z,1.74
2023-03-02T20:30:45.905Z,1.68
2023-03-02T20:33:15.010Z,1.63
2023-03-02T20:35:45.983Z,1.61
2023-03-02T20:38:18.599Z,1.57
2023-03-02T20:40:47.319Z,1.50
2023-03-02T20:43:17.026Z,1.46
2023-03-02T20:45:45.478Z,1.42
2023-03-02T20:48:14.817Z,1.42
2023-03-02T20:50:43.605Z,1.36
2023-03-02T20:53:12.029Z,1.36
2023-03-02T20:55:39.931Z,1.26
2023-03-02T20:58:08.385Z,1.21
2023-03-02T21:00:38.418Z,1.23
2023-03-02T21:03:07.495Z,1.13
2023-03-02T21:05:37.674Z,1.07
2023-03-02T21:08:06.348Z,1.13
2023-03-02T21:10:37.361Z,1.08
2023-03-02T21:13:07.570Z,1.05
2023-03-02T21:15:37.432Z,1.08
2023-03-02T21:18:05.627Z,0.97
2023-03-02T21:20:36.814Z,0.96
2023-03-02T21:23:05.093Z,0.93
2023-03-02T21:25:33.240Z,0.91
2023-03-02T21:28:01.211Z,0.88
2023-03-02T21:30:34.051Z,0.90
2023-03-02T21:33:04.655Z,0.83
2023-03-02T21:35:32.550Z,0.86
2023-03-02T21:38:04.765Z,0.87
2023-03-02T21:40:35.611Z,0.83
2023-03-02T21:43:05.475Z,0.80
2023-03-02T21:45:33.850Z,0.79
2023-03-02T21:48:03.539Z,0.74
2023-03-02T21:50:34.104Z,0.75
2023-03-02T21:53:02.100Z,0.74
2023-03-02T21:55:31.139Z,0.74
2023-03-02T21:57:59.675Z,0.75
2023-03-02T22:00:29.600Z,0.71
2023-03-02T22:02:57.520Z,0.74
2023-03-02T22:05:26.899Z,0.72
2023-03-02T22:07:55.713Z,0.76
2023-03-02T22:10:27.864Z,0.77
2023-03-02T22:13:14.459Z,0.82
2023-03-02T22:15:42.612Z,0.83
2023-03-02T22:18:12.387Z,0.82
2023-03-02T22:20:43.248Z,0.84
2023-03-02T22:23:13.411Z,0.85
2023-03-02T22:25:43.404Z,0.91
2023-03-02T22:28:18.860Z,0.89
2023-03-02T22:30:46.727Z,0.86
2023-03-02T22:33:23.000Z,0.92
2023-03-02T22:35:56.708Z,0.91
2023-03-02T22:38:27.200Z,0.90
2023-03-02T22:40:56.365Z,0.87
2023-03-02T22:43:29.405Z,0.87
2023-03-02T22:46:06.625Z,0.91
2023-03-02T22:48:36.892Z,0.91
2023-03-02T22:51:14.568Z,0.91
2023-03-02T22:53:48.627Z,0.94
2023-03-02T22:56:28.078Z,0.94
2023-03-02T22:58:57.980Z,0.93
2023-03-02T23:01:27.820Z,0.97
2023-03-02T23:04:00.369Z,1.01
2023-03-02T23:06:31.493Z,1.00
2023-03-02T23:09:01.775Z,1.00
2023-03-02T23:11:32.869Z,1.07
2023-03-02T23:14:01.697Z,1.08
2023-03-02T23:16:36.492Z,1.09
2023-03-02T23:19:06.522Z,1.08
2023-03-02T23:21:39.357Z,1.04
2023-03-02T23:24:09.224Z,1.05
2023-03-02T23:26:37.860Z,1.07
2023-03-02T23:29:06.736Z,1.05
2023-03-02T23:31:34.848Z,1.03
2023-03-02T23:34:02.898Z,1.04
2023-03-02T23:36:31.985Z,1.02
2023-03-02T23:39:01.937Z,1.02
2023-03-02T23:41:29.890Z,1.03
2023-03-02T23:43:58.166Z,1.03
2023-03-02T23:46:26.270Z,1.04
2023-03-02T23:48:56.062Z,1.05
2023-03-02T23:51:25.419Z,1.06
2023-03-02T23:53:53.726Z,1.03
2023-03-02T23:56:23.258Z,1.07
2023-03-02T23:58:51.038Z,1.09
